createdAt,value
2019-01-21T00:02:24.464Z,7.70
2019-01-21T00:04:53.160Z,8.07
2019-01-21T00:07:21.887Z,7.50
2019-01-21T00:09:50.679Z,7.70
2019-01-21T00:12:19.381Z,7.40
2019-01-21T00:14:48.070Z,7.77
2019-01-21T00:17:22.261Z,7.90
2019-01-21T00:19:47.603Z,7.20
2019-01-21T00:22:16.395Z,7.97
2019-01-21T00:24:45.096Z,7.53
2019-01-21T00:27:13.860Z,7.30
2019-01-21T00:29:42.627Z,7.33
2019-01-21T00:32:11.406Z,7.30
2019-01-21T00:34:40.168Z,7.10
2019-01-21T00:37:08.868Z,6.87
2019-01-21T00:39:37.635Z,7.00
2019-01-21T00:42:06.390Z,7.00
2019-01-21T00:44:35.184Z,7.23
2019-01-21T00:47:03.953Z,7.23
2019-01-21T00:49:32.789Z,7.53
2019-01-21T00:52:01.475Z,8.10
2019-01-21T00:54:30.160Z,7.60
2019-01-21T00:56:58.864Z,7.50
2019-01-21T00:59:27.870Z,7.80
2019-01-21T01:01:56.710Z,8.00
2019-01-21T01:04:25.483Z,8.00
2019-01-21T01:06:54.251Z,7.90
2019-01-21T01:09:23.322Z,7.80
2019-01-21T01:11:52.090Z,8.10
2019-01-21T01:14:20.790Z,8.13
2019-01-21T01:16:49.665Z,8.27
2019-01-21T01:19:18.429Z,8.00
2019-01-21T01:21:47.188Z,7.93
2019-01-21T01:24:15.878Z,7.93
2019-01-21T01:26:44.714Z,8.00
2019-01-21T01:29:13.395Z,8.07
2019-01-21T01:31:42.158Z,8.37
2019-01-21T01:34:10.928Z,7.90
2019-01-21T01:36:39.656Z,8.37
2019-01-21T01:39:08.467Z,7.67
2019-01-21T01:41:38.303Z,7.67
2019-01-21T01:44:07.142Z,7.70
2019-01-21T01:46:35.915Z,7.97
2019-01-21T01:49:04.790Z,8.50
2019-01-21T01:51:33.559Z,7.27
2019-01-21T01:54:02.472Z,6.90
2019-01-21T01:56:31.228Z,7.17
2019-01-21T01:59:00.307Z,7.40
2019-01-21T02:01:29.247Z,8.00
2019-01-21T02:03:57.949Z,7.30
2019-01-21T02:06:26.699Z,7.87
2019-01-21T02:08:55.459Z,7.73
2019-01-21T02:11:24.216Z,7.87
2019-01-21T02:13:53.381Z,7.83
2019-01-21T02:16:22.197Z,6.93
2019-01-21T02:18:51.038Z,7.50
2019-01-21T02:21:21.276Z,7.30
2019-01-21T02:23:53.719Z,7.10
2019-01-21T02:26:24.139Z,6.83
2019-01-21T02:29:02.635Z,6.73
2019-01-21T02:32:08.702Z,6.80
2019-01-21T02:34:43.148Z,7.80
2019-01-21T02:37:56.262Z,7.33
2019-01-21T02:40:41.047Z,7.73
2019-01-21T02:43:39.119Z,8.30
2019-01-21T02:47:10.427Z,7.90
2019-01-21T02:50:19.232Z,8.10
2019-01-21T02:53:32.549Z,8.00
2019-01-21T02:56:25.339Z,7.30
2019-01-21T02:59:41.678Z,7.47
2019-01-21T03:03:09.981Z,6.90
2019-01-21T03:06:22.919Z,6.93
2019-01-21T03:09:44.645Z,7.40
2019-01-21T03:12:54.146Z,7.37
2019-01-21T03:16:04.831Z,7.70
2019-01-21T03:19:24.634Z,7.70
2019-01-21T03:22:49.082Z,7.80
2019-01-21T03:25:58.207Z,7.70
2019-01-21T03:28:54.785Z,7.20
2019-01-21T03:31:49.570Z,7.77
2019-01-21T03:34:42.114Z,7.50
2019-01-21T03:37:43.626Z,7.93
2019-01-21T03:40:46.134Z,7.70
2019-01-21T03:43:46.090Z,8.20
2019-01-21T03:46:51.734Z,8.10
2019-01-21T03:49:31.264Z,8.03
2019-01-21T03:52:30.759Z,7.70
2019-01-21T03:55:04.485Z,7.80
2019-01-21T03:58:18.300Z,8.57
2019-01-21T04:01:12.506Z,7.43
2019-01-21T04:04:22.625Z,7.97
2019-01-21T04:07:10.780Z,7.80
2019-01-21T04:10:03.123Z,7.73
2019-01-21T04:13:01.444Z,7.90
2019-01-21T04:16:10.852Z,7.40
2019-01-21T04:18:56.434Z,7.30
2019-01-21T04:22:21.851Z,7.80
2019-01-21T04:25:43.888Z,7.63
2019-01-21T04:28:38.680Z,8.43
2019-01-21T04:31:33.475Z,7.37
2019-01-21T04:34:29.302Z,7.60
2019-01-21T04:37:10.171Z,7.60
2019-01-21T04:40:03.632Z,7.87
2019-01-21T04:43:02.120Z,8.07
2019-01-21T04:45:43.011Z,7.60
2019-01-21T04:48:37.389Z,8.03
2019-01-21T04:51:48.043Z,8.07
2019-01-21T04:54:45.192Z,9.17
2019-01-21T04:57:36.938Z,8.40
2019-01-21T05:00:44.027Z,8.20
2019-01-21T05:04:05.899Z,8.20
2019-01-21T05:07:09.440Z,8.57
2019-01-21T05:10:15.175Z,8.50
2019-01-21T05:13:17.059Z,8.57
2019-01-21T05:16:04.597Z,8.80
2019-01-21T05:19:07.635Z,8.97
2019-01-21T05:22:11.942Z,9.27
2019-01-21T05:25:30.879Z,8.93
2019-01-21T05:28:26.797Z,8.97
2019-01-21T05:31:33.969Z,8.53
2019-01-21T05:34:48.789Z,9.50
2019-01-21T05:37:51.424Z,9.10
2019-01-21T05:40:56.685Z,9.30
2019-01-21T05:44:22.085Z,9.07
2019-01-21T05:47:35.952Z,9.27
2019-01-21T05:50:44.564Z,10.10
2019-01-21T05:53:58.405Z,10.07
2019-01-21T05:57:03.381Z,9.87
2019-01-21T06:00:08.889Z,10.00
2019-01-21T06:03:11.217Z,10.50
2019-01-21T06:06:17.322Z,10.20
2019-01-21T06:09:10.888Z,10.10
2019-01-21T06:12:05.088Z,10.17
2019-01-21T06:15:10.881Z,9.67
2019-01-21T06:18:15.637Z,9.77
2019-01-21T06:21:10.167Z,10.23
2019-01-21T06:24:15.902Z,10.77
2019-01-21T06:27:29.411Z,10.03
2019-01-21T06:30:30.376Z,9.83
2019-01-21T06:33:45.332Z,9.70
2019-01-21T06:36:43.911Z,10.50
2019-01-21T06:39:38.595Z,10.40
2019-01-21T06:42:58.721Z,9.30
2019-01-21T06:46:02.242Z,10.47
2019-01-21T06:49:04.775Z,9.70
2019-01-21T06:52:13.183Z,9.93
2019-01-21T06:55:09.795Z,9.63
2019-01-21T06:58:10.896Z,10.07
2019-01-21T07:01:38.858Z,10.03
2019-01-21T07:04:30.929Z,10.23
2019-01-21T07:07:26.434Z,10.37
2019-01-21T07:10:21.418Z,9.90
2019-01-21T07:13:33.246Z,10.47
2019-01-21T07:16:30.164Z,11.17
2019-01-21T07:19:37.657Z,10.03
2019-01-21T07:22:27.412Z,10.43
2019-01-21T07:25:32.682Z,10.50
2019-01-21T07:29:10.396Z,10.50
2019-01-21T07:31:58.186Z,9.90
2019-01-21T07:35:00.222Z,10.37
2019-01-21T07:37:56.640Z,9.20
2019-01-21T07:41:05.916Z,9.97
2019-01-21T07:43:57.127Z,10.00
2019-01-21T07:47:02.225Z,10.13
2019-01-21T07:50:24.365Z,9.37
2019-01-21T07:53:33.195Z,9.40
2019-01-21T07:56:38.611Z,9.23
2019-01-21T07:59:47.859Z,8.83
2019-01-21T08:02:57.980Z,9.30
2019-01-21T08:06:06.544Z,8.93
2019-01-21T08:08:42.387Z,9.27
2019-01-21T08:11:42.707Z,9.37
2019-01-21T08:14:43.227Z,9.60
2019-01-21T08:17:22.825Z,10.23
2019-01-21T08:20:07.451Z,10.37
2019-01-21T08:23:20.515Z,11.20
2019-01-21T08:26:08.702Z,10.90
2019-01-21T08:29:12.313Z,10.33
2019-01-21T08:32:34.824Z,10.20
2019-01-21T08:35:23.920Z,10.40
2019-01-21T08:38:13.103Z,11.10
2019-01-21T08:40:58.175Z,11.23
2019-01-21T08:44:13.041Z,11.30
2019-01-21T08:47:07.235Z,11.68
2019-01-21T08:50:14.418Z,11.40
2019-01-21T08:53:19.761Z,11.07
2019-01-21T08:56:45.425Z,11.30
2019-01-21T08:59:40.274Z,10.77
2019-01-21T09:02:46.516Z,11.23
2019-01-21T09:05:56.403Z,11.00
2019-01-21T09:09:11.438Z,11.17
2019-01-21T09:12:24.795Z,11.30
2019-01-21T09:15:39.537Z,11.20
2019-01-21T09:18:33.854Z,11.40
2019-01-21T09:21:49.926Z,10.50
2019-01-21T09:25:15.470Z,12.03
2019-01-21T09:28:29.935Z,11.70
2019-01-21T09:31:22.148Z,11.60
2019-01-21T09:34:22.175Z,11.37
2019-01-21T09:37:44.454Z,11.45
2019-01-21T09:41:01.456Z,12.20
2019-01-21T09:44:16.606Z,11.80
2019-01-21T09:46:44.744Z,11.73
2019-01-21T09:49:12.126Z,12.27
2019-01-21T09:51:43.134Z,12.00
2019-01-21T09:54:12.093Z,11.83
2019-01-21T09:56:41.140Z,11.78
2019-01-21T09:59:09.927Z,11.90
2019-01-21T10:01:38.805Z,12.97
2019-01-21T10:04:07.663Z,12.83
2019-01-21T10:06:46.549Z,13.40
2019-01-21T10:09:39.595Z,12.47
2019-01-21T10:12:38.307Z,12.47
2019-01-21T10:15:27.806Z,12.67
2019-01-21T10:18:56.069Z,11.93
2019-01-21T10:22:02.539Z,11.33
2019-01-21T10:24:45.642Z,11.10
2019-01-21T10:28:17.142Z,11.93
2019-01-21T10:31:22.733Z,11.57
2019-01-21T10:34:18.293Z,12.50
2019-01-21T10:37:23.027Z,12.10
2019-01-21T10:40:22.000Z,12.00
2019-01-21T10:43:30.518Z,11.83
2019-01-21T10:46:43.611Z,12.63
2019-01-21T10:49:57.534Z,12.20
2019-01-21T10:52:56.551Z,11.87
2019-01-21T10:55:58.027Z,12.70
2019-01-21T10:59:10.678Z,13.63
2019-01-21T11:02:09.619Z,12.13
2019-01-21T11:05:28.822Z,12.50
2019-01-21T11:09:04.977Z,13.03
2019-01-21T11:12:09.898Z,13.47
2019-01-21T11:15:10.842Z,12.50
2019-01-21T11:17:59.900Z,12.47
2019-01-21T11:21:03.839Z,12.03
2019-01-21T11:23:53.308Z,12.93
2019-01-21T11:27:03.275Z,11.60
2019-01-21T11:29:58.298Z,12.57
2019-01-21T11:33:04.369Z,12.10
2019-01-21T11:35:45.687Z,12.53
2019-01-21T11:38:51.568Z,13.40
2019-01-21T11:42:05.095Z,12.33
2019-01-21T11:45:05.320Z,12.23
2019-01-21T11:47:54.769Z,11.90
2019-01-21T11:51:16.914Z,12.37
2019-01-21T11:54:19.999Z,12.63
2019-01-21T11:57:00.789Z,12.27
2019-01-21T12:00:11.082Z,12.80
2019-01-21T12:03:07.272Z,12.50
2019-01-21T12:05:49.818Z,13.20
2019-01-21T12:08:48.689Z,12.50
2019-01-21T12:11:42.915Z,13.13
2019-01-21T12:14:43.483Z,13.50
2019-01-21T12:18:11.489Z,14.27
2019-01-21T12:21:19.576Z,13.40
2019-01-21T12:24:12.624Z,13.83
2019-01-21T12:27:37.594Z,13.60
2019-01-21T12:30:43.026Z,13.33
2019-01-21T12:33:51.691Z,13.07
2019-01-21T12:36:52.867Z,12.77
2019-01-21T12:40:06.766Z,12.33
2019-01-21T12:43:08.758Z,12.50
2019-01-21T12:46:24.696Z,13.90
2019-01-21T12:49:35.178Z,12.47
2019-01-21T12:52:18.452Z,13.43
2019-01-21T12:55:31.433Z,13.00
2019-01-21T12:58:48.055Z,12.60
2019-01-21T13:01:51.082Z,13.03
2019-01-21T13:04:44.132Z,13.60
2019-01-21T13:08:15.601Z,13.77
2019-01-21T13:10:58.923Z,13.53
2019-01-21T13:14:07.607Z,13.60
2019-01-21T13:17:20.589Z,13.80
2019-01-21T13:20:23.704Z,13.47
2019-01-21T13:23:22.684Z,13.70
2019-01-21T13:26:39.395Z,13.37
2019-01-21T13:29:22.794Z,14.37
2019-01-21T13:32:25.277Z,14.13
2019-01-21T13:35:31.171Z,14.43
2019-01-21T13:38:31.490Z,14.50
2019-01-21T13:41:33.684Z,13.40
2019-01-21T13:44:39.612Z,14.43
2019-01-21T13:47:44.649Z,14.43
2019-01-21T13:50:56.419Z,14.53
2019-01-21T13:54:21.850Z,14.60
2019-01-21T13:57:21.035Z,14.87
2019-01-21T14:00:27.412Z,15.87
2019-01-21T14:03:22.720Z,14.73
2019-01-21T14:06:28.449Z,14.50
2019-01-21T14:09:43.383Z,15.07
2019-01-21T14:12:55.710Z,14.80
2019-01-21T14:15:53.147Z,15.10
2019-01-21T14:18:40.128Z,14.93
2019-01-21T14:21:22.107Z,15.80
2019-01-21T14:24:16.276Z,14.30
2019-01-21T14:27:26.851Z,14.00
2019-01-21T14:30:40.246Z,15.43
2019-01-21T14:33:44.028Z,14.30
2019-01-21T14:36:49.956Z,14.87
2019-01-21T14:39:46.403Z,14.37
2019-01-21T14:42:36.792Z,15.17
2019-01-21T14:46:17.389Z,15.07
2019-01-21T14:49:16.459Z,15.70
2019-01-21T14:52:30.067Z,14.87
2019-01-21T14:55:39.261Z,14.70
2019-01-21T14:58:24.293Z,13.80
2019-01-21T15:01:22.337Z,14.30
2019-01-21T15:04:18.817Z,14.87
2019-01-21T15:07:03.463Z,14.93
2019-01-21T15:09:58.410Z,14.50
2019-01-21T15:13:20.566Z,14.20
2019-01-21T15:16:09.748Z,14.23
2019-01-21T15:19:19.253Z,13.90
2019-01-21T15:22:15.459Z,13.70
2019-01-21T15:25:27.343Z,13.63
2019-01-21T15:28:52.788Z,13.80
2019-01-21T15:32:08.879Z,13.53
2019-01-21T15:35:12.717Z,14.77
2019-01-21T15:37:54.612Z,14.50
2019-01-21T15:40:53.945Z,13.80
2019-01-21T15:43:46.581Z,13.90
2019-01-21T15:47:02.663Z,13.43
2019-01-21T15:49:45.435Z,12.60
2019-01-21T15:53:02.093Z,13.37
2019-01-21T15:56:18.954Z,13.23
2019-01-21T15:59:20.628Z,12.87
2019-01-21T16:02:14.875Z,13.30
2019-01-21T16:05:46.485Z,13.03
2019-01-21T16:08:26.923Z,13.23
2019-01-21T16:11:22.670Z,13.13
2019-01-21T16:14:02.696Z,12.67
2019-01-21T16:16:40.500Z,12.90
2019-01-21T16:19:15.930Z,13.40
2019-01-21T16:22:21.707Z,12.77
2019-01-21T16:25:40.588Z,12.70
2019-01-21T16:28:59.652Z,13.33
2019-01-21T16:32:17.250Z,11.90
2019-01-21T16:35:46.491Z,10.93
2019-01-21T16:38:35.495Z,11.70
2019-01-21T16:42:03.910Z,10.97
2019-01-21T16:44:33.040Z,10.47
2019-01-21T16:47:01.814Z,10.33
2019-01-21T16:49:30.631Z,10.80
2019-01-21T16:51:59.439Z,10.00
2019-01-21T16:54:28.313Z,11.43
2019-01-21T16:56:57.125Z,10.37
2019-01-21T16:59:25.818Z,10.17
2019-01-21T17:01:56.122Z,10.27
2019-01-21T17:04:25.243Z,10.03
2019-01-21T17:06:54.032Z,10.27
2019-01-21T17:09:23.299Z,10.20
2019-01-21T17:11:52.294Z,10.87
2019-01-21T17:14:20.986Z,10.30
2019-01-21T17:16:49.783Z,9.93
2019-01-21T17:19:18.556Z,10.50
2019-01-21T17:21:47.282Z,10.83
2019-01-21T17:24:16.351Z,10.60
2019-01-21T17:26:45.211Z,10.70
2019-01-21T17:29:13.914Z,10.30
2019-01-21T17:31:42.619Z,10.37
2019-01-21T17:34:12.161Z,10.40
2019-01-21T17:36:40.951Z,10.33
2019-01-21T17:39:09.869Z,9.83
2019-01-21T17:41:38.567Z,9.83
2019-01-21T17:44:07.354Z,9.43
2019-01-21T17:46:36.075Z,9.40
2019-01-21T17:49:05.254Z,10.00
2019-01-21T17:51:35.394Z,9.20
2019-01-21T17:54:04.901Z,9.60
2019-01-21T17:56:33.997Z,10.07
2019-01-21T17:59:02.789Z,10.47
2019-01-21T18:01:31.547Z,9.67
2019-01-21T18:04:00.228Z,9.77
2019-01-21T18:06:29.072Z,9.80
2019-01-21T18:08:57.832Z,9.00
2019-01-21T18:11:26.548Z,9.30
2019-01-21T18:13:55.315Z,8.93
2019-01-21T18:16:24.081Z,9.40
2019-01-21T18:18:52.861Z,8.80
2019-01-21T18:21:21.635Z,8.43
2019-01-21T18:23:50.367Z,8.50
2019-01-21T18:26:19.124Z,8.53
2019-01-21T18:28:47.964Z,8.40
2019-01-21T18:31:16.725Z,8.63
2019-01-21T18:33:45.885Z,8.23
2019-01-21T18:36:15.571Z,8.23
2019-01-21T18:38:44.352Z,8.17
2019-01-21T18:41:13.207Z,8.50
2019-01-21T18:43:41.977Z,8.20
2019-01-21T18:46:10.761Z,7.63
2019-01-21T18:48:39.554Z,8.00
2019-01-21T18:51:08.324Z,7.83
2019-01-21T18:53:37.011Z,7.40
2019-01-21T18:56:05.830Z,7.60
2019-01-21T18:58:34.609Z,7.73
2019-01-21T19:01:03.380Z,8.10
2019-01-21T19:03:32.103Z,9.10
2019-01-21T19:06:00.867Z,8.07
2019-01-21T19:08:30.021Z,8.87
2019-01-21T19:10:58.807Z,8.00
2019-01-21T19:13:27.566Z,7.70
2019-01-21T19:15:56.317Z,8.10
2019-01-21T19:18:25.105Z,7.90
2019-01-21T19:20:53.802Z,8.10
2019-01-21T19:23:22.599Z,8.77
2019-01-21T19:25:51.297Z,8.40
2019-01-21T19:28:20.000Z,8.77
2019-01-21T19:30:48.775Z,9.00
2019-01-21T19:33:17.453Z,8.40
2019-01-21T19:35:46.173Z,8.27
2019-01-21T19:38:14.851Z,8.03
2019-01-21T19:40:43.993Z,8.20
2019-01-21T19:43:12.971Z,7.40
2019-01-21T19:45:41.666Z,7.27
2019-01-21T19:48:10.487Z,7.33
2019-01-21T19:50:39.178Z,7.40
2019-01-21T19:53:07.953Z,8.17
2019-01-21T19:55:39.303Z,7.40
2019-01-21T19:58:08.761Z,8.13
2019-01-21T20:00:37.622Z,8.47
2019-01-21T20:03:06.379Z,7.80
2019-01-21T20:05:35.139Z,7.87
2019-01-21T20:08:04.432Z,7.83
2019-01-21T20:10:33.190Z,7.97
2019-01-21T20:13:02.027Z,7.60
2019-01-21T20:15:30.912Z,7.70
2019-01-21T20:17:59.594Z,7.63
2019-01-21T20:20:33.715Z,8.00
2019-01-21T20:23:02.550Z,8.00
2019-01-21T20:25:31.344Z,7.73
2019-01-21T20:28:00.190Z,6.90
2019-01-21T20:30:28.956Z,7.03
2019-01-21T20:32:58.071Z,7.13
2019-01-21T20:35:26.836Z,7.83
2019-01-21T20:37:56.571Z,7.20
2019-01-21T20:40:26.577Z,7.50
2019-01-21T20:42:55.345Z,8.13
2019-01-21T20:45:24.216Z,7.60
2019-01-21T20:47:52.980Z,9.27
2019-01-21T20:50:23.990Z,9.03
2019-01-21T20:52:52.749Z,9.07
2019-01-21T20:55:21.808Z,9.40
2019-01-21T20:57:50.584Z,9.80
2019-01-21T21:00:21.653Z,8.20
2019-01-21T21:02:50.517Z,9.10
2019-01-21T21:05:19.355Z,9.57
2019-01-21T21:07:48.135Z,8.67
2019-01-21T21:10:16.988Z,9.03
2019-01-21T21:12:45.750Z,8.73
2019-01-21T21:15:20.063Z,8.20
2019-01-21T21:17:48.756Z,7.77
2019-01-21T21:20:17.630Z,7.90
2019-01-21T21:22:46.395Z,7.97
2019-01-21T21:25:16.691Z,8.07
2019-01-21T21:27:45.479Z,8.20
2019-01-21T21:30:17.750Z,8.67
2019-01-21T21:32:46.441Z,8.07
2019-01-21T21:35:15.252Z,7.93
2019-01-21T21:37:44.025Z,8.13
2019-01-21T21:40:15.020Z,8.53
2019-01-21T21:42:43.879Z,8.57
2019-01-21T21:45:13.650Z,8.57
2019-01-21T21:47:42.687Z,8.90
2019-01-21T21:50:14.602Z,8.83
2019-01-21T21:52:43.483Z,8.50
2019-01-21T21:55:12.892Z,9.07
2019-01-21T21:57:41.752Z,8.30
2019-01-21T22:00:14.053Z,8.57
2019-01-21T22:02:42.851Z,8.63
2019-01-21T22:05:12.063Z,8.37
2019-01-21T22:07:40.833Z,7.73
2019-01-21T22:10:12.211Z,7.73
2019-01-21T22:12:40.991Z,7.13
2019-01-21T22:15:12.723Z,7.87
2019-01-21T22:17:41.575Z,7.10
2019-01-21T22:20:13.180Z,7.87
2019-01-21T22:22:42.271Z,8.07
2019-01-21T22:25:11.130Z,7.60
2019-01-21T22:27:40.159Z,7.40
2019-01-21T22:30:17.480Z,7.70
2019-01-21T22:32:46.257Z,7.57
2019-01-21T22:35:15.245Z,7.90
2019-01-21T22:37:44.490Z,7.83
2019-01-21T22:40:15.556Z,8.17
2019-01-21T22:42:44.513Z,7.23
2019-01-21T22:45:14.441Z,8.20
2019-01-21T22:47:43.286Z,8.50
2019-01-21T22:50:13.771Z,8.87
2019-01-21T22:52:42.824Z,8.37
2019-01-21T22:55:13.120Z,8.23
2019-01-21T22:57:41.954Z,7.60
2019-01-21T23:00:21.041Z,8.60
2019-01-21T23:02:49.876Z,8.13
2019-01-21T23:05:18.657Z,7.87
2019-01-21T23:07:47.351Z,8.20
2019-01-21T23:10:16.043Z,8.17
2019-01-21T23:12:44.807Z,7.60
2019-01-21T23:15:14.444Z,7.80
2019-01-21T23:17:43.207Z,7.73
2019-01-21T23:20:12.074Z,8.10
2019-01-21T23:22:40.810Z,7.87
2019-01-21T23:25:09.932Z,8.30
2019-01-21T23:27:38.900Z,8.20
2019-01-21T23:30:10.086Z,8.17
2019-01-21T23:32:38.836Z,8.13
2019-01-21T23:35:07.616Z,8.30
2019-01-21T23:37:36.482Z,8.10
2019-01-21T23:40:05.968Z,7.60
2019-01-21T23:42:34.731Z,9.07
2019-01-21T23:45:03.587Z,8.60
2019-01-21T23:47:32.392Z,8.23
2019-01-21T23:50:01.153Z,8.00
2019-01-21T23:52:29.883Z,8.30
2019-01-21T23:54:59.167Z,8.10
2019-01-21T23:57:27.855Z,8.67
2019-01-21T23:59:56.631Z,8.63
